createdAt,value
2022-09-29T00:45:19.275Z,8.90
2022-09-29T00:47:52.646Z,8.80
2022-09-29T00:50:55.759Z,8.90
2022-09-29T00:53:25.906Z,8.80
2022-09-29T00:55:59.460Z,8.80
2022-09-29T00:58:35.210Z,8.80
2022-09-29T01:03:33.700Z,8.90
2022-09-29T01:06:06.580Z,8.90
2022-09-29T01:08:58.195Z,8.80
2022-09-29T01:11:25.741Z,8.80
2022-09-29T01:13:54.685Z,8.80
2022-09-29T01:21:27.926Z,8.90
2022-09-29T01:26:47.674Z,8.90
2022-09-29T01:29:33.356Z,8.90
2022-09-29T01:32:15.444Z,8.90
2022-09-29T01:34:54.081Z,8.90
2022-09-29T01:37:47.488Z,8.90
2022-09-29T01:40:36.235Z,8.80
2022-09-29T01:45:34.116Z,8.90
2022-09-29T01:48:08.192Z,8.90
2022-09-29T01:50:56.908Z,8.90
2022-09-29T01:53:30.469Z,8.90
2022-09-29T01:56:05.653Z,8.80
2022-09-29T01:58:47.401Z,8.90
2022-09-29T02:01:15.008Z,8.90
2022-09-29T02:03:49.114Z,8.90
2022-09-29T02:06:23.891Z,8.80
2022-09-29T02:08:54.112Z,8.90
2022-09-29T02:14:29.112Z,8.90
2022-09-29T02:17:12.354Z,8.90
2022-09-29T02:19:43.142Z,8.80
2022-09-29T02:29:36.985Z,8.70
2022-09-29T02:32:10.088Z,8.70
2022-09-29T02:34:42.213Z,8.70
2022-09-29T02:37:17.943Z,8.70
2022-09-29T02:40:06.989Z,8.70
2022-09-29T02:42:45.107Z,8.70
2022-09-29T02:45:49.869Z,8.70
2022-09-29T02:48:37.773Z,8.60
2022-09-29T02:51:31.026Z,8.30
2022-09-29T02:54:25.485Z,8.60
2022-09-29T02:57:17.955Z,8.50
2022-09-29T03:00:09.240Z,8.50
2022-09-29T03:02:40.448Z,8.50
2022-09-29T03:05:10.739Z,8.50
2022-09-29T03:07:38.728Z,8.50
2022-09-29T03:10:06.969Z,8.50
2022-09-29T03:47:00.900Z,7.70
2022-09-29T04:46:06.337Z,7.10
2022-09-29T05:25:38.300Z,6.80
2022-09-29T05:42:52.090Z,6.50
2022-09-29T05:52:41.861Z,6.60
2022-09-29T06:00:06.361Z,6.40
2022-09-29T07:11:49.746Z,8.10
2022-09-29T07:14:18.776Z,8.20
2022-09-29T07:19:16.896Z,8.30
2022-09-29T07:56:22.825Z,9.00
2022-09-29T07:58:50.729Z,9.00
2022-09-29T08:01:19.180Z,9.10
2022-09-29T08:03:51.221Z,9.00
2022-09-29T08:11:32.154Z,9.00
2022-09-29T08:14:00.687Z,9.20
2022-09-29T08:26:21.740Z,9.40
2022-09-29T08:33:59.041Z,9.50
2022-09-29T08:38:55.068Z,9.70
2022-09-29T08:41:43.679Z,9.70
2022-09-29T08:44:42.329Z,9.70
2022-09-29T08:47:41.530Z,9.80
2022-09-29T08:50:26.579Z,9.90
2022-09-29T08:52:56.272Z,10.00
2022-09-29T08:58:01.413Z,9.90
2022-09-29T09:00:41.857Z,9.80
2022-09-29T09:03:31.617Z,10.10
2022-09-29T09:06:28.002Z,10.10
2022-09-29T09:09:12.714Z,10.20
2022-09-29T09:17:07.897Z,10.40
2022-09-29T09:19:57.452Z,10.40
2022-09-29T09:22:31.355Z,10.40
2022-09-29T09:25:23.863Z,10.50
2022-09-29T09:28:04.559Z,10.50
2022-09-29T09:31:01.472Z,10.60
2022-09-29T09:33:32.279Z,10.60
2022-09-29T09:36:09.991Z,10.70
2022-09-29T09:38:47.503Z,10.70
2022-09-29T09:41:20.282Z,10.70
2022-09-29T09:43:52.217Z,10.80
2022-09-29T09:49:03.954Z,10.80
2022-09-29T09:51:49.816Z,11.00
2022-09-29T09:54:48.981Z,11.10
2022-09-29T09:57:52.768Z,11.10
2022-09-29T10:00:31.916Z,11.20
2022-09-29T10:03:03.871Z,11.20
2022-09-29T10:05:40.951Z,11.20
2022-09-29T10:08:13.543Z,11.30
2022-09-29T10:10:56.535Z,11.30
2022-09-29T10:13:30.433Z,11.20
2022-09-29T10:16:13.390Z,11.20
2022-09-29T10:18:42.793Z,11.20
2022-09-29T10:21:32.859Z,11.20
2022-09-29T10:24:01.359Z,11.30
2022-09-29T10:26:37.318Z,11.30
2022-09-29T10:29:24.319Z,11.40
2022-09-29T10:32:05.867Z,11.40
2022-09-29T10:34:35.965Z,11.40
2022-09-29T10:37:27.397Z,11.40
2022-09-29T10:40:18.080Z,11.40
2022-09-29T10:42:48.722Z,11.30
2022-09-29T10:45:26.138Z,11.30
2022-09-29T10:47:58.840Z,11.40
2022-09-29T10:50:33.434Z,11.20
2022-09-29T10:53:36.020Z,11.40
2022-09-29T10:56:19.595Z,11.70
2022-09-29T10:59:00.242Z,11.50
2022-09-29T11:01:32.994Z,11.70
2022-09-29T11:04:04.157Z,11.70
2022-09-29T11:06:40.461Z,11.90
2022-09-29T11:09:15.983Z,11.90
2022-09-29T11:11:48.923Z,11.90
2022-09-29T11:14:32.462Z,12.00
2022-09-29T11:17:01.444Z,12.00
2022-09-29T11:19:31.062Z,12.00
2022-09-29T11:22:35.117Z,12.20
2022-09-29T11:25:30.538Z,11.70
2022-09-29T11:30:33.047Z,11.90
2022-09-29T11:33:01.389Z,12.20
2022-09-29T11:36:06.218Z,11.90
2022-09-29T11:38:44.926Z,11.60
2022-09-29T11:41:25.516Z,11.90
2022-09-29T11:43:55.841Z,12.00
2022-09-29T11:46:46.790Z,12.00
2022-09-29T11:49:26.780Z,12.00
2022-09-29T11:52:19.195Z,12.10
2022-09-29T11:55:05.798Z,11.80
2022-09-29T11:58:01.815Z,12.50
2022-09-29T12:00:58.323Z,12.60
2022-09-29T12:06:33.256Z,12.20
2022-09-29T12:09:24.712Z,12.20
2022-09-29T12:12:22.070Z,12.30
2022-09-29T12:15:18.685Z,12.40
2022-09-29T12:17:51.052Z,12.20
2022-09-29T12:20:35.318Z,12.00
2022-09-29T12:23:07.639Z,12.40
2022-09-29T12:25:38.425Z,12.30
2022-09-29T12:28:17.449Z,12.30
2022-09-29T12:30:53.038Z,12.10
2022-09-29T12:33:33.356Z,12.30
2022-09-29T12:36:29.581Z,12.40
2022-09-29T12:39:10.509Z,12.40
2022-09-29T12:41:42.376Z,12.30
2022-09-29T12:46:47.481Z,12.40
2022-09-29T12:49:34.272Z,12.40
2022-09-29T12:52:02.528Z,12.40
2022-09-29T12:57:06.320Z,12.40
2022-09-29T12:59:48.185Z,12.30
2022-09-29T13:02:28.044Z,12.40
2022-09-29T13:05:37.643Z,12.40
2022-09-29T13:08:40.156Z,12.30
2022-09-29T13:11:25.679Z,12.40
2022-09-29T13:14:14.076Z,12.20
2022-09-29T13:19:20.354Z,12.40
2022-09-29T13:22:01.684Z,12.20
2022-09-29T13:24:47.603Z,12.30
2022-09-29T13:27:31.343Z,12.30
2022-09-29T13:30:15.348Z,12.30
2022-09-29T13:33:07.659Z,12.20
2022-09-29T13:35:43.363Z,12.50
2022-09-29T13:38:22.819Z,12.20
2022-09-29T13:41:35.255Z,12.20
2022-09-29T13:44:04.900Z,12.20
2022-09-29T13:49:15.715Z,12.10
2022-09-29T13:54:33.669Z,12.10
2022-09-29T13:57:12.468Z,11.90
2022-09-29T13:59:42.223Z,12.10
2022-09-29T14:02:57.728Z,12.20
2022-09-29T14:10:26.071Z,12.20
2022-09-29T14:13:04.756Z,12.20
2022-09-29T14:15:45.556Z,12.20
2022-09-29T14:18:38.798Z,12.20
2022-09-29T14:21:12.052Z,12.20
2022-09-29T14:23:45.732Z,12.20
2022-09-29T14:26:43.283Z,12.20
2022-09-29T14:29:28.752Z,12.30
2022-09-29T14:32:01.543Z,12.20
2022-09-29T14:34:33.716Z,12.20
2022-09-29T14:37:01.576Z,12.30
2022-09-29T14:39:31.252Z,12.30
2022-09-29T14:41:58.349Z,12.20
2022-09-29T14:44:54.301Z,12.20
2022-09-29T14:50:59.799Z,12.30
2022-09-29T14:56:14.366Z,12.40
2022-09-29T14:58:58.504Z,12.40
2022-09-29T15:03:54.663Z,12.10
2022-09-29T15:06:24.574Z,12.30
2022-09-29T15:09:16.010Z,11.90
2022-09-29T15:11:52.768Z,12.30
2022-09-29T15:17:15.125Z,12.20
2022-09-29T15:19:56.754Z,12.20
2022-09-29T15:22:52.538Z,12.60
2022-09-29T15:25:30.313Z,12.00
2022-09-29T15:28:03.840Z,12.10
2022-09-29T15:30:31.781Z,12.10
2022-09-29T15:33:24.051Z,12.20
2022-09-29T15:36:02.171Z,12.00
2022-09-29T15:38:40.177Z,12.00
2022-09-29T15:41:16.914Z,12.00
2022-09-29T15:43:54.616Z,11.90
2022-09-29T15:46:24.319Z,11.90
2022-09-29T15:49:21.412Z,11.80
2022-09-29T15:52:13.530Z,11.80
2022-09-29T15:54:45.531Z,11.80
2022-09-29T15:57:43.052Z,11.70
2022-09-29T16:00:22.020Z,11.50
2022-09-29T16:03:04.129Z,11.70
2022-09-29T16:05:34.526Z,11.70
2022-09-29T16:10:32.819Z,11.70
2022-09-29T16:13:13.502Z,11.60
2022-09-29T16:15:46.461Z,11.40
2022-09-29T16:18:44.877Z,11.70
2022-09-29T16:21:15.099Z,11.80
2022-09-29T16:23:48.243Z,11.60
2022-09-29T16:26:35.041Z,11.60
2022-09-29T16:29:30.565Z,11.60
2022-09-29T16:31:58.503Z,11.60
2022-09-29T16:39:24.141Z,11.50
2022-09-29T16:41:57.023Z,11.50
2022-09-29T16:44:34.743Z,11.50
2022-09-29T16:47:09.718Z,11.40
2022-09-29T16:49:44.813Z,11.10
2022-09-29T16:52:28.655Z,11.50
2022-09-29T16:55:18.516Z,11.50
2022-09-29T16:57:55.459Z,11.20
2022-09-29T17:02:55.371Z,11.00
2022-09-29T17:05:23.503Z,11.20
2022-09-29T17:07:51.676Z,11.20
2022-09-29T17:10:20.621Z,11.20
2022-09-29T17:12:48.223Z,11.30
2022-09-29T17:15:16.511Z,11.20
2022-09-29T17:17:46.651Z,11.10
2022-09-29T17:20:18.761Z,11.00
2022-09-29T17:25:14.102Z,10.90
2022-09-29T17:28:02.244Z,10.80
2022-09-29T17:32:58.226Z,10.60
2022-09-29T17:35:47.665Z,10.70
2022-09-29T17:40:57.184Z,10.50
2022-09-29T17:43:24.678Z,10.30
2022-09-29T17:45:54.434Z,10.60
2022-09-29T17:50:56.290Z,10.20
2022-09-29T17:53:25.450Z,10.40
2022-09-29T17:55:54.597Z,10.40
2022-09-29T17:58:22.883Z,11.00
2022-09-29T18:00:52.345Z,10.40
2022-09-29T18:03:21.425Z,10.40
2022-09-29T18:05:56.311Z,10.40
2022-09-29T18:08:25.522Z,10.20
2022-09-29T18:11:00.707Z,10.40
2022-09-29T18:13:29.438Z,10.40
2022-09-29T18:15:58.322Z,10.60
2022-09-29T18:23:21.058Z,10.50
2022-09-29T18:25:50.474Z,10.50
2022-09-29T18:28:18.245Z,10.50
2022-09-29T18:30:50.504Z,10.50
2022-09-29T18:33:19.691Z,10.50
2022-09-29T18:35:52.564Z,10.50
2022-09-29T18:38:19.701Z,10.40
2022-09-29T18:43:14.805Z,10.50
2022-09-29T18:48:14.097Z,10.50
2022-09-29T18:50:44.033Z,10.50
2022-09-29T18:53:13.209Z,10.40
2022-09-29T18:58:14.179Z,10.40
2022-09-29T19:00:45.197Z,10.40
2022-09-29T19:05:42.516Z,10.40
2022-09-29T19:08:12.856Z,10.50
2022-09-29T19:10:42.118Z,10.50
2022-09-29T19:13:15.816Z,10.50
2022-09-29T19:15:44.793Z,10.20
2022-09-29T19:18:23.783Z,10.50
2022-09-29T19:20:52.933Z,10.50
2022-09-29T19:25:48.876Z,10.50
2022-09-29T19:28:17.170Z,10.50
2022-09-29T19:33:15.421Z,10.40
2022-09-29T19:35:57.359Z,10.20
2022-09-29T19:48:18.858Z,10.30
2022-09-29T19:51:05.100Z,10.20
2022-09-29T20:00:57.617Z,10.00
2022-09-29T20:15:44.031Z,9.90
2022-09-29T20:37:49.703Z,9.80
2022-09-29T20:40:16.624Z,9.70
2022-09-29T20:50:10.129Z,10.10
2022-09-29T20:57:32.399Z,9.90
2022-09-29T21:07:36.237Z,9.60
2022-09-29T21:10:05.549Z,9.70
2022-09-29T21:51:58.935Z,9.70
2022-09-29T22:09:20.569Z,9.70
2022-09-29T22:14:18.148Z,9.70
2022-09-29T22:19:28.451Z,9.70
2022-09-29T22:44:07.192Z,9.70
2022-09-29T22:46:35.018Z,9.60
2022-09-29T22:56:28.714Z,9.70
2022-09-29T22:59:01.009Z,9.70
2022-09-29T23:11:20.610Z,9.70
2022-09-29T23:13:47.962Z,9.70
2022-09-29T23:16:16.412Z,9.60
2022-09-29T23:18:45.323Z,9.40
2022-09-29T23:21:15.405Z,9.60
2022-09-29T23:31:05.552Z,9.50
2022-09-29T23:36:15.551Z,9.40
2022-09-29T23:39:02.627Z,9.40
2022-09-29T23:41:30.681Z,9.50
2022-09-29T23:44:00.461Z,9.60
2022-09-29T23:46:32.107Z,9.50
2022-09-29T23:49:04.574Z,9.50
2022-09-29T23:54:00.335Z,9.50
2022-09-29T23:56:27.626Z,9.50
